Time,TemperatureF,DewpointF,PressureIn,WindDirection,WindDirectionDegrees,WindSpeedMPH,WindSpeedGustMPH,Humidity,HourlyPrecipIn,Conditions,Clouds,dailyrainin,SoftwareType,DateUTC
2013-01-18 00:00:00,31.2,31.2,30.20,NNW,337,3.0,6.0,100,0.00,,,-99.99,WeatherLink 5.4,2013-01-18 05:00:00,
2013-01-18 00:30:00,31.6,31.6,30.22,NNW,337,3.0,8.0,100,0.00,,,-99.99,WeatherLink 5.4,2013-01-18 05:30:00,
2013-01-18 01:00:00,31.9,31.4,30.24,NNW,337,2.0,9.0,98,0.00,,,-99.99,WeatherLink 5.4,2013-01-18 06:00:00,
2013-01-18 01:30:00,31.7,31.2,30.25,North,0,1.0,9.0,98,0.00,,,-99.99,WeatherLink 5.4,2013-01-18 06:30:00,
2013-01-18 02:00:00,29.6,29.6,30.26,SSE,157,3.0,7.0,100,0.00,,,-99.99,WeatherLink 5.4,2013-01-18 07:00:00,
2013-01-18 02:30:00,28.7,28.7,30.26,SSE,157,2.0,6.0,100,0.00,,,-99.99,WeatherLink 5.4,2013-01-18 07:30:00,
2013-01-18 03:00:00,28.8,28.8,30.27,SSE,157,1.0,7.0,100,0.00,,,-99.99,WeatherLink 5.4,2013-01-18 08:00:00,
2013-01-18 03:30:00,30.3,29.3,30.27,NNW,337,3.0,8.0,96,0.00,,,-99.99,WeatherLink 5.4,2013-01-18 08:30:00,
2013-01-18 04:00:00,29.8,29.1,30.28,NNW,337,1.0,6.0,97,0.00,,,-99.99,WeatherLink 5.4,2013-01-18 09:00:00,
2013-01-18 04:30:00,29.2,27.9,30.28,NNW,337,0.0,3.0,95,0.00,,,-99.99,WeatherLink 5.4,2013-01-18 09:30:00,
2013-01-18 05:00:00,29.7,27.9,30.28,NNW,337,0.0,4.0,93,0.00,,,-99.99,WeatherLink 5.4,2013-01-18 10:00:00,
2013-01-18 05:30:00,29.0,27.5,30.29,NNW,337,1.0,3.0,94,0.00,,,-99.99,WeatherLink 5.4,2013-01-18 10:30:00,
2013-01-18 06:00:00,27.6,26.9,30.30,NNW,337,1.0,3.0,97,0.00,,,-99.99,WeatherLink 5.4,2013-01-18 11:00:00,
2013-01-18 06:30:00,27.4,26.7,30.32,NNW,337,0.0,2.0,97,0.00,,,-99.99,WeatherLink 5.4,2013-01-18 11:30:00,
2013-01-18 07:00:00,27.6,26.6,30.33,North,-999,0.0,0.0,96,0.00,,,-99.99,WeatherLink 5.4,2013-01-18 12:00:00,
2013-01-18 07:30:00,27.8,26.6,30.33,NNW,337,0.0,3.0,95,0.00,,,-99.99,WeatherLink 5.4,2013-01-18 12:30:00,
2013-01-18 08:00:00,27.2,26.2,30.33,NNW,337,0.0,2.0,96,0.00,,,-99.99,WeatherLink 5.4,2013-01-18 13:00:00,
2013-01-18 08:05:00,26.6,25.6,30.34,NNW,330,0.0,2.0,96,0.00,,SKC,0.00,VWS V12.07,2013-01-18 13:05:00,
2013-01-18 08:30:00,26.7,26.2,30.35,NNW,337,1.0,3.0,98,0.00,,,-99.99,WeatherLink 5.4,2013-01-18 13:30:00,
2013-01-18 09:00:00,27.5,27.0,30.37,NNW,337,2.0,4.0,98,0.00,,,-99.99,WeatherLink 5.4,2013-01-18 14:00:00,
2013-01-18 09:30:00,28.5,28.3,30.40,SSE,157,3.0,5.0,99,0.00,,,-99.99,WeatherLink 5.4,2013-01-18 14:30:00,
2013-01-18 10:00:00,29.9,29.2,30.42,SSE,157,1.0,5.0,97,0.00,,,-99.99,WeatherLink 5.4,2013-01-18 15:00:00,
2013-01-18 10:30:00,31.5,30.2,30.43,SSE,157,1.0,5.0,95,0.00,,,-99.99,WeatherLink 5.4,2013-01-18 15:30:00,
2013-01-18 11:00:00,33.1,31.0,30.43,SSE,157,1.0,5.0,92,0.00,,,-99.99,WeatherLink 5.4,2013-01-18 16:00:00,
2013-01-18 11:30:00,34.4,31.2,30.44,SSE,157,3.0,7.0,88,0.00,,,-99.99,WeatherLink 5.4,2013-01-18 16:30:00,
2013-01-18 12:00:00,36.0,32.2,30.43,South,180,2.0,7.0,86,0.00,,,-99.99,WeatherLink 5.4,2013-01-18 17:00:00,
2013-01-18 12:30:00,38.5,33.2,30.42,SSE,157,2.0,5.0,81,0.00,,,-99.99,WeatherLink 5.4,2013-01-18 17:30:00,
2013-01-18 13:00:00,40.5,34.5,30.40,SSE,157,2.0,6.0,79,0.00,,,-99.99,WeatherLink 5.4,2013-01-18 18:00:00,
2013-01-18 13:30:00,42.6,33.9,30.40,SSE,157,2.0,5.0,71,0.00,,,-99.99,WeatherLink 5.4,2013-01-18 18:30:00,
2013-01-18 14:00:00,44.4,32.6,30.39,SSE,157,2.0,7.0,63,0.00,,,-99.99,WeatherLink 5.4,2013-01-18 19:00:00,
2013-01-18 14:30:00,46.1,31.7,30.39,SSE,157,3.0,7.0,57,0.00,,,-99.99,WeatherLink 5.4,2013-01-18 19:30:00,
2013-01-18 15:00:00,47.5,29.8,30.39,SSE,157,2.0,7.0,50,0.00,,,-99.99,WeatherLink 5.4,2013-01-18 20:00:00,
2013-01-18 15:30:00,48.3,31.0,30.39,West,270,1.0,5.0,51,0.00,,,-99.99,WeatherLink 5.4,2013-01-18 20:30:00,
2013-01-18 16:00:00,49.1,32.2,30.39,North,0,1.0,6.0,52,0.00,,,-99.99,WeatherLink 5.4,2013-01-18 21:00:00,
2013-01-18 16:30:00,49.5,30.6,30.39,SSW,202,1.0,5.0,48,0.00,,,-99.99,WeatherLink 5.4,2013-01-18 21:30:00,
2013-01-18 17:00:00,48.8,33.3,30.39,SE,135,0.0,4.0,55,0.00,,,-99.99,WeatherLink 5.4,2013-01-18 22:00:00,
2013-01-18 17:30:00,47.8,33.3,30.39,WSW,247,0.0,1.0,57,0.00,,,-99.99,WeatherLink 5.4,2013-01-18 22:30:00,
2013-01-18 18:00:00,46.5,33.8,30.39,North,-999,0.0,0.0,61,0.00,,,-99.99,WeatherLink 5.4,2013-01-18 23:00:00,
2013-01-18 18:30:00,44.8,33.4,30.40,WSW,247,0.0,2.0,64,0.00,,,-99.99,WeatherLink 5.4,2013-01-18 23:30:00,
2013-01-18 19:00:00,43.9,33.3,30.41,WSW,247,0.0,1.0,66,0.00,,,-99.99,WeatherLink 5.4,2013-01-19 00:00:00,
2013-01-18 19:30:00,43.1,33.3,30.41,North,-999,0.0,0.0,68,0.00,,,-99.99,WeatherLink 5.4,2013-01-19 00:30:00,
2013-01-18 19:35:00,42.2,32.8,30.41,WSW,257,0.0,0.0,69,0.00,,SKC,0.00,VWS V12.07,2013-01-19 00:35:00,
2013-01-18 20:00:00,41.9,31.7,30.41,WSW,247,0.0,2.0,67,0.00,,,-99.99,WeatherLink 5.4,2013-01-19 01:00:00,
2013-01-18 20:30:00,41.3,29.3,30.41,SE,135,1.0,6.0,62,0.00,,,-99.99,WeatherLink 5.4,2013-01-19 01:30:00,
2013-01-18 21:00:00,40.9,30.0,30.42,SE,135,2.0,5.0,65,0.00,,,-99.99,WeatherLink 5.4,2013-01-19 02:00:00,
2013-01-18 21:30:00,40.2,29.7,30.42,SE,135,2.0,5.0,66,0.00,,,-99.99,WeatherLink 5.4,2013-01-19 02:30:00,
2013-01-18 22:00:00,38.6,28.6,30.42,SE,135,2.0,5.0,67,0.00,,,-99.99,WeatherLink 5.4,2013-01-19 03:00:00,
2013-01-18 22:30:00,38.3,30.4,30.42,SE,135,2.0,5.0,73,0.00,,,-99.99,WeatherLink 5.4,2013-01-19 03:30:00,
2013-01-18 23:00:00,38.2,27.5,30.40,SE,135,3.0,5.0,65,0.00,,,-99.99,WeatherLink 5.4,2013-01-19 04:00:00,
2013-01-18 23:30:00,38.5,28.5,30.39,SE,135,2.0,5.0,67,0.00,,,-99.99,WeatherLink 5.4,2013-01-19 04:30:00,